createdAt,value
2022-11-28T00:01:17.998Z,9.10
2022-11-28T00:03:45.791Z,11.02
2022-11-28T00:06:13.608Z,8.57
2022-11-28T00:08:41.493Z,8.35
2022-11-28T00:11:12.313Z,10.75
2022-11-28T00:13:42.094Z,7.40
2022-11-28T00:16:13.980Z,7.25
2022-11-28T00:18:41.747Z,7.82
2022-11-28T00:21:12.409Z,9.27
2022-11-28T00:23:40.341Z,7.53
2022-11-28T00:26:10.972Z,8.95
2022-11-28T00:28:40.153Z,7.20
2022-11-28T00:31:13.491Z,8.10
2022-11-28T00:33:41.187Z,7.50
2022-11-28T00:36:09.423Z,7.85
2022-11-28T00:38:37.182Z,8.60
2022-11-28T00:41:06.724Z,7.25
2022-11-28T00:43:35.031Z,7.90
2022-11-28T00:46:03.147Z,9.07
2022-11-28T00:48:33.409Z,8.73
2022-11-28T00:51:07.815Z,6.22
2022-11-28T00:53:36.163Z,8.73
2022-11-28T00:56:05.452Z,9.10
2022-11-28T00:58:33.274Z,7.53
2022-11-28T01:01:01.434Z,7.40
2022-11-28T01:03:29.159Z,9.32
2022-11-28T01:05:58.264Z,9.20
2022-11-28T01:08:26.113Z,7.43
2022-11-28T01:10:53.842Z,8.07
2022-11-28T01:13:21.560Z,6.03
2022-11-28T01:15:49.350Z,6.75
2022-11-28T01:18:17.189Z,6.85
2022-11-28T01:20:44.967Z,7.93
2022-11-28T01:23:14.202Z,5.82
2022-11-28T01:25:41.900Z,7.55
2022-11-28T01:28:09.621Z,7.68
2022-11-28T01:30:37.370Z,6.35
2022-11-28T01:33:05.062Z,8.60
2022-11-28T01:35:32.808Z,6.65
2022-11-28T01:38:00.570Z,7.03
2022-11-28T01:40:29.801Z,9.07
2022-11-28T01:42:57.593Z,8.27
2022-11-28T01:45:27.813Z,7.30
2022-11-28T01:47:59.475Z,6.55
2022-11-28T01:50:28.979Z,6.70
2022-11-28T01:53:01.193Z,7.30
2022-11-28T01:55:38.836Z,8.73
2022-11-28T01:58:07.644Z,6.75
2022-11-28T02:00:35.659Z,7.57
2022-11-28T02:03:07.702Z,7.75
2022-11-28T02:05:35.407Z,7.80
2022-11-28T02:08:03.733Z,7.80
2022-11-28T02:10:45.061Z,7.68
2022-11-28T02:13:28.683Z,6.47
2022-11-28T02:16:11.944Z,7.30
2022-11-28T02:18:58.295Z,8.60
2022-11-28T02:21:39.593Z,9.57
2022-11-28T02:24:29.338Z,6.22
2022-11-28T02:27:14.563Z,8.15
2022-11-28T02:30:15.402Z,10.00
2022-11-28T02:33:04.034Z,10.30
2022-11-28T02:35:39.325Z,11.90
2022-11-28T02:38:18.309Z,12.35
2022-11-28T02:40:56.071Z,28.15
2022-11-28T02:43:32.754Z,12.55
2022-11-28T02:46:05.338Z,11.77
2022-11-28T02:48:41.154Z,15.63
2022-11-28T02:51:15.381Z,14.45
2022-11-28T02:53:46.719Z,17.00
2022-11-28T02:56:14.831Z,13.68
2022-11-28T02:58:42.567Z,13.88
2022-11-28T03:01:19.403Z,13.57
2022-11-28T03:04:03.285Z,10.80
2022-11-28T03:06:44.248Z,12.13
2022-11-28T03:09:45.566Z,11.05
2022-11-28T03:12:26.019Z,10.93
2022-11-28T03:14:56.197Z,11.50
2022-11-28T03:17:33.371Z,12.15
2022-11-28T03:20:16.794Z,10.70
2022-11-28T03:22:55.949Z,9.90
2022-11-28T03:25:29.884Z,9.98
2022-11-28T03:28:03.335Z,14.75
2022-11-28T03:30:35.625Z,10.93
2022-11-28T03:33:04.929Z,12.18
2022-11-28T03:35:40.456Z,13.05
2022-11-28T03:38:12.448Z,10.95
2022-11-28T03:40:44.909Z,10.38
2022-11-28T03:45:46.297Z,12.98
2022-11-28T03:48:18.613Z,13.73
2022-11-28T03:50:52.780Z,11.93
2022-11-28T03:53:26.036Z,12.43
2022-11-28T03:56:00.896Z,13.43
2022-11-28T03:58:36.333Z,10.73
2022-11-28T04:01:12.064Z,12.57
2022-11-28T04:03:46.669Z,10.18
2022-11-28T04:06:22.030Z,11.38
2022-11-28T04:08:59.434Z,12.35
2022-11-28T04:11:38.364Z,13.02
2022-11-28T04:14:13.388Z,13.90
2022-11-28T04:16:53.619Z,12.45
2022-11-28T04:19:29.821Z,12.50
2022-11-28T04:22:04.064Z,11.07
2022-11-28T04:24:35.845Z,11.77
2022-11-28T04:27:07.510Z,14.65
2022-11-28T04:29:39.169Z,8.53
2022-11-28T04:32:09.129Z,13.70
2022-11-28T04:34:38.627Z,14.85
2022-11-28T04:37:10.156Z,14.32
2022-11-28T04:39:39.229Z,12.00
2022-11-28T04:42:12.525Z,12.88
2022-11-28T04:44:47.182Z,13.95
2022-11-28T04:47:15.571Z,13.02
2022-11-28T04:49:43.563Z,11.40
2022-11-28T04:52:20.161Z,12.30
2022-11-28T04:54:57.507Z,13.95
2022-11-28T04:57:31.343Z,15.65
2022-11-28T05:00:02.138Z,12.57
2022-11-28T05:02:32.524Z,13.02
2022-11-28T05:05:09.551Z,14.70
2022-11-28T05:07:38.857Z,13.35
2022-11-28T05:10:08.151Z,12.55
2022-11-28T05:12:35.924Z,12.60
2022-11-28T05:15:03.782Z,13.75
2022-11-28T05:17:31.576Z,12.82
2022-11-28T05:19:59.356Z,13.20
2022-11-28T05:22:32.220Z,12.10
2022-11-28T05:28:51.589Z,11.70
2022-11-28T05:31:21.490Z,10.60
2022-11-28T05:33:49.472Z,10.88
2022-11-28T05:36:18.968Z,12.75
2022-11-28T05:38:46.883Z,10.43
2022-11-28T05:41:23.310Z,13.70
2022-11-28T05:43:51.422Z,13.20
2022-11-28T05:46:20.325Z,14.48
2022-11-28T05:48:48.813Z,14.90
2022-11-28T05:51:16.898Z,14.60
2022-11-28T05:53:46.297Z,14.23
2022-11-28T05:56:16.102Z,12.07
2022-11-28T05:58:46.917Z,14.60
2022-11-28T06:01:16.815Z,12.05
2022-11-28T06:03:45.617Z,12.98
2022-11-28T06:06:15.441Z,12.27
2022-11-28T06:08:44.001Z,12.70
2022-11-28T06:11:14.923Z,15.05
2022-11-28T06:13:43.340Z,13.75
2022-11-28T06:16:17.618Z,15.25
2022-11-28T06:18:47.767Z,14.15
2022-11-28T06:21:19.771Z,14.55
2022-11-28T06:23:50.891Z,12.52
2022-11-28T06:26:21.918Z,11.90
2022-11-28T06:28:50.106Z,15.55
2022-11-28T06:31:23.730Z,13.43
2022-11-28T06:33:52.580Z,12.27
2022-11-28T06:36:21.777Z,13.57
2022-11-28T06:38:49.992Z,11.70
2022-11-28T06:41:19.816Z,15.27
2022-11-28T06:43:47.745Z,15.07
2022-11-28T06:46:18.140Z,14.65
2022-11-28T06:48:49.542Z,12.07
2022-11-28T06:51:18.344Z,15.50
2022-11-28T06:53:46.397Z,16.00
2022-11-28T06:56:16.289Z,13.25
2022-11-28T06:58:45.220Z,13.75
2022-11-28T07:01:15.584Z,15.00
2022-11-28T07:03:44.374Z,15.45
2022-11-28T07:06:14.773Z,13.30
2022-11-28T07:08:43.287Z,12.30
2022-11-28T07:11:13.304Z,13.18
2022-11-28T07:13:41.992Z,14.95
2022-11-28T07:16:15.741Z,12.80
2022-11-28T07:18:43.959Z,16.20
2022-11-28T07:21:14.821Z,12.68
2022-11-28T07:23:44.185Z,13.45
2022-11-28T07:26:15.917Z,12.35
2022-11-28T07:28:44.581Z,15.27
2022-11-28T07:31:14.486Z,13.77
2022-11-28T07:33:43.932Z,13.07
2022-11-28T07:36:16.001Z,12.80
2022-11-28T07:38:44.421Z,13.00
2022-11-28T07:41:14.375Z,13.90
2022-11-28T07:43:44.028Z,13.43
2022-11-28T07:46:14.138Z,15.48
2022-11-28T07:48:42.412Z,11.88
2022-11-28T07:51:12.339Z,12.18
2022-11-28T07:53:42.513Z,14.32
2022-11-28T07:56:13.926Z,15.02
2022-11-28T07:58:42.939Z,13.02
2022-11-28T08:01:11.729Z,15.27
2022-11-28T08:03:40.232Z,14.18
2022-11-28T08:06:09.301Z,11.25
2022-11-28T08:08:37.158Z,13.43
2022-11-28T08:11:08.198Z,14.18
2022-11-28T08:13:36.845Z,12.02
2022-11-28T08:16:06.652Z,13.65
2022-11-28T08:18:35.065Z,12.38
2022-11-28T08:21:07.338Z,12.43
2022-11-28T08:23:36.364Z,12.05
2022-11-28T08:26:04.325Z,12.18
2022-11-28T08:28:33.901Z,12.35
2022-11-28T08:31:09.048Z,11.80
2022-11-28T08:33:36.807Z,13.93
2022-11-28T08:36:05.716Z,12.82
2022-11-28T08:38:33.709Z,14.20
2022-11-28T08:41:02.987Z,15.30
2022-11-28T08:43:30.832Z,12.80
2022-11-28T08:45:59.992Z,12.95
2022-11-28T08:48:27.734Z,14.32
2022-11-28T08:50:55.504Z,12.90
2022-11-28T08:53:23.361Z,13.13
2022-11-28T08:55:55.035Z,13.00
2022-11-28T08:58:22.823Z,12.13
2022-11-28T09:00:50.638Z,12.15
2022-11-28T09:03:21.300Z,12.68
2022-11-28T09:05:52.169Z,13.75
2022-11-28T09:08:21.738Z,14.52
2022-11-28T09:10:49.453Z,13.23
2022-11-28T09:13:17.215Z,13.10
2022-11-28T09:15:51.149Z,12.23
2022-11-28T09:18:21.691Z,11.35
2022-11-28T09:20:49.491Z,12.38
2022-11-28T09:23:17.286Z,13.68
2022-11-28T09:25:45.161Z,12.55
2022-11-28T09:28:12.934Z,13.70
2022-11-28T09:30:40.688Z,13.13
2022-11-28T09:33:08.732Z,14.25
2022-11-28T09:35:40.290Z,13.27
2022-11-28T09:38:08.642Z,16.33
2022-11-28T09:40:38.812Z,15.02
2022-11-28T09:43:15.791Z,16.58
2022-11-28T09:45:45.831Z,15.90
2022-11-28T09:48:26.584Z,17.50
2022-11-28T09:51:01.017Z,17.75
2022-11-28T09:53:36.274Z,21.08
2022-11-28T09:56:13.229Z,23.15
2022-11-28T09:58:46.914Z,24.20
2022-11-28T10:01:18.924Z,24.58
2022-11-28T10:03:55.192Z,23.48
2022-11-28T10:06:30.978Z,26.65
2022-11-28T10:09:28.004Z,28.48
2022-11-28T10:12:14.838Z,29.13
2022-11-28T10:15:05.855Z,31.45
2022-11-28T10:17:44.400Z,32.22
2022-11-28T10:20:17.101Z,37.40
2022-11-28T10:22:49.732Z,35.30
2022-11-28T10:25:21.193Z,33.92
2022-11-28T10:27:50.370Z,32.47
2022-11-28T10:30:23.236Z,38.25
2022-11-28T10:32:58.261Z,39.35
2022-11-28T10:35:32.200Z,43.05
2022-11-28T10:38:01.395Z,37.50
2022-11-28T10:40:37.445Z,38.60
2022-11-28T10:43:12.197Z,49.55
2022-11-28T10:45:49.822Z,48.70
2022-11-28T10:48:41.355Z,53.92
2022-11-28T10:51:25.744Z,35.35
2022-11-28T10:54:05.650Z,81.28
2022-11-28T10:56:42.091Z,48.17
2022-11-28T10:59:19.405Z,47.20
2022-11-28T11:01:50.456Z,54.88
2022-11-28T11:04:20.978Z,53.00
2022-11-28T11:07:10.582Z,41.33
2022-11-28T11:09:43.901Z,39.47
2022-11-28T11:12:21.515Z,45.60
2022-11-28T11:14:49.350Z,47.10
2022-11-28T11:17:34.246Z,35.83
2022-11-28T11:20:03.718Z,48.25
2022-11-28T11:22:32.607Z,46.10
2022-11-28T11:25:17.968Z,48.40
2022-11-28T11:27:50.828Z,44.55
2022-11-28T11:30:27.121Z,58.67
2022-11-28T11:32:56.327Z,86.43
2022-11-28T11:35:27.126Z,46.15
2022-11-28T11:38:14.900Z,50.53
2022-11-28T11:40:44.062Z,35.88
2022-11-28T11:43:26.680Z,62.65
2022-11-28T11:46:09.052Z,59.72
2022-11-28T11:48:39.818Z,63.20
2022-11-28T11:51:08.946Z,32.33
2022-11-28T11:53:36.669Z,45.72
2022-11-28T11:56:06.119Z,50.40
2022-11-28T11:58:41.192Z,43.33
2022-11-28T12:01:12.714Z,33.33
2022-11-28T12:03:42.827Z,27.40
2022-11-28T12:06:16.843Z,29.20
2022-11-28T12:08:51.341Z,24.65
2022-11-28T12:11:25.944Z,30.40
2022-11-28T12:13:54.448Z,31.45
2022-11-28T12:16:38.767Z,33.53
2022-11-28T12:19:17.874Z,31.38
2022-11-28T12:21:59.887Z,24.85
2022-11-28T12:24:34.749Z,29.88
2022-11-28T12:27:13.095Z,33.10
2022-11-28T12:29:52.254Z,24.27
2022-11-28T12:32:38.072Z,34.88
2022-11-28T12:35:19.100Z,28.27
2022-11-28T12:38:10.854Z,44.38
2022-11-28T12:40:49.609Z,22.40
2022-11-28T12:43:32.366Z,26.33
2022-11-28T12:48:43.154Z,29.35
2022-11-28T12:51:21.895Z,29.08
2022-11-28T12:54:07.447Z,25.33
2022-11-28T12:56:48.649Z,25.45
2022-11-28T12:59:26.917Z,29.33
2022-11-28T13:02:09.657Z,25.83
2022-11-28T13:05:06.250Z,29.60
2022-11-28T13:07:44.939Z,31.30
2022-11-28T13:10:19.665Z,33.60
2022-11-28T13:12:57.038Z,29.52
2022-11-28T13:15:42.135Z,32.15
2022-11-28T13:18:20.942Z,28.17
2022-11-28T13:20:54.582Z,25.42
2022-11-28T13:23:28.571Z,27.58
2022-11-28T13:26:02.618Z,26.73
2022-11-28T13:28:37.387Z,31.60
2022-11-28T13:31:11.020Z,22.77
2022-11-28T13:33:52.056Z,30.10
2022-11-28T13:39:23.801Z,27.50
2022-11-28T13:42:52.352Z,28.88
2022-11-28T13:44:57.521Z,23.23
2022-11-28T13:47:34.874Z,27.88
2022-11-28T13:50:38.246Z,21.90
2022-11-28T13:53:22.901Z,22.75
2022-11-28T13:55:52.687Z,17.23
2022-11-28T13:58:28.401Z,21.95
2022-11-28T14:01:07.783Z,26.05
2022-11-28T14:03:46.324Z,20.50
2022-11-28T14:06:18.250Z,23.55
2022-11-28T14:08:50.099Z,24.23
2022-11-28T14:11:59.907Z,33.35
2022-11-28T14:14:54.425Z,24.42
2022-11-28T14:17:37.781Z,30.48
2022-11-28T14:20:20.470Z,28.95
2022-11-28T14:25:28.466Z,33.30
2022-11-28T14:27:59.897Z,32.08
2022-11-28T14:30:33.369Z,27.30
2022-11-28T14:33:07.216Z,27.73
2022-11-28T14:36:16.812Z,30.15
2022-11-28T14:38:47.453Z,34.15
2022-11-28T14:41:16.922Z,29.92
2022-11-28T14:43:46.363Z,23.90
2022-11-28T14:46:35.043Z,54.20
2022-11-28T14:49:19.136Z,31.75
2022-11-28T14:52:38.341Z,36.63
2022-11-28T14:55:17.950Z,32.05
2022-11-28T14:57:56.122Z,38.05
2022-11-28T15:00:26.539Z,39.63
2022-11-28T15:03:20.571Z,44.15
2022-11-28T15:05:50.887Z,27.70
2022-11-28T15:08:30.069Z,35.10
2022-11-28T15:11:09.775Z,34.88
2022-11-28T15:13:53.915Z,36.45
2022-11-28T15:16:24.024Z,28.60
2022-11-28T15:18:54.854Z,35.70
2022-11-28T15:21:23.383Z,28.80
2022-11-28T15:23:55.133Z,26.75
2022-11-28T15:26:29.415Z,45.47
2022-11-28T15:29:10.341Z,33.63
2022-11-28T15:31:38.904Z,42.45
2022-11-28T15:34:09.996Z,40.90
2022-11-28T15:36:40.216Z,28.73
2022-11-28T15:39:26.165Z,29.85
2022-11-28T15:41:56.731Z,31.88
2022-11-28T15:44:25.238Z,40.35
2022-11-28T15:46:53.442Z,34.63
2022-11-28T15:49:26.610Z,33.95
2022-11-28T15:51:56.220Z,58.10
2022-11-28T15:54:36.338Z,39.67
2022-11-28T15:57:05.991Z,57.35
2022-11-28T15:59:37.292Z,53.30
2022-11-28T16:02:15.094Z,65.00
2022-11-28T16:04:44.044Z,55.90
2022-11-28T16:07:16.156Z,74.85
2022-11-28T16:09:55.161Z,51.97
2022-11-28T16:12:25.474Z,57.53
2022-11-28T16:14:58.690Z,41.35
2022-11-28T16:17:33.081Z,42.53
2022-11-28T16:20:03.649Z,43.92
2022-11-28T16:22:40.951Z,53.15
2022-11-28T16:25:15.277Z,38.03
2022-11-28T16:27:48.825Z,41.78
2022-11-28T16:30:36.740Z,36.53
2022-11-28T16:33:26.561Z,53.08
2022-11-28T16:35:54.588Z,37.95
2022-11-28T16:38:29.624Z,63.72
2022-11-28T16:41:01.729Z,53.88
2022-11-28T16:43:35.743Z,52.83
2022-11-28T16:46:06.507Z,64.75
2022-11-28T16:48:37.202Z,87.95
2022-11-28T16:51:34.301Z,71.53
2022-11-28T16:54:23.575Z,45.47
2022-11-28T16:56:51.482Z,60.67
2022-11-28T16:59:21.454Z,73.05
2022-11-28T17:01:53.195Z,100.22
2022-11-28T17:04:22.705Z,36.40
2022-11-28T17:06:50.840Z,35.92
2022-11-28T17:09:19.234Z,31.55
2022-11-28T17:11:51.889Z,58.78
2022-11-28T17:14:21.350Z,44.58
2022-11-28T17:16:49.289Z,95.50
2022-11-28T17:19:17.648Z,287.63
2022-11-28T17:21:47.863Z,84.68
2022-11-28T17:24:18.714Z,99.28
2022-11-28T17:26:47.190Z,83.47
2022-11-28T17:29:16.667Z,39.00
2022-11-28T17:31:47.380Z,49.00
2022-11-28T17:34:17.453Z,48.60
2022-11-28T17:36:45.730Z,56.15
2022-11-28T17:39:13.858Z,54.20
2022-11-28T17:41:42.390Z,31.73
2022-11-28T17:44:22.334Z,32.67
2022-11-28T17:46:54.663Z,54.72
2022-11-28T17:49:23.541Z,50.50
2022-11-28T17:51:52.561Z,71.47
2022-11-28T17:54:27.665Z,40.53
2022-11-28T17:57:01.705Z,41.20
2022-11-28T17:59:29.610Z,67.63
2022-11-28T18:01:58.952Z,40.22
2022-11-28T18:04:27.002Z,49.78
2022-11-28T18:06:54.808Z,43.60
2022-11-28T18:09:22.642Z,77.47
2022-11-28T18:11:51.715Z,57.85
2022-11-28T18:14:20.061Z,39.47
2022-11-28T18:16:48.105Z,39.05
2022-11-28T18:19:17.407Z,77.80
2022-11-28T18:21:45.224Z,68.63
2022-11-28T18:24:17.077Z,59.33
2022-11-28T18:26:44.955Z,43.45
2022-11-28T18:29:13.088Z,57.35
2022-11-28T18:31:40.898Z,58.13
2022-11-28T18:34:09.569Z,51.72
2022-11-28T18:36:40.038Z,58.92
2022-11-28T18:39:10.074Z,42.08
2022-11-28T18:41:40.061Z,53.42
2022-11-28T18:44:08.139Z,37.33
2022-11-28T18:46:36.457Z,56.67
2022-11-28T18:49:05.600Z,63.45
2022-11-28T18:51:35.193Z,39.42
2022-11-28T18:54:06.249Z,37.22
2022-11-28T18:56:34.091Z,34.83
2022-11-28T18:59:02.378Z,32.35
2022-11-28T19:01:32.075Z,30.20
2022-11-28T19:04:02.832Z,34.50
2022-11-28T19:06:30.996Z,37.60
2022-11-28T19:09:00.585Z,30.65
2022-11-28T19:11:30.600Z,41.80
2022-11-28T19:14:00.650Z,30.33
2022-11-28T19:16:29.884Z,31.08
2022-11-28T19:18:58.452Z,44.95
2022-11-28T19:21:28.854Z,35.80
2022-11-28T19:23:58.048Z,49.78
2022-11-28T19:26:28.039Z,36.05
2022-11-28T19:28:59.531Z,36.95
2022-11-28T19:31:29.088Z,43.88
2022-11-28T19:34:01.538Z,55.80
2022-11-28T19:36:30.256Z,37.72
2022-11-28T19:38:58.625Z,51.60
2022-11-28T19:41:26.994Z,50.33
2022-11-28T19:43:54.863Z,61.47
2022-11-28T19:46:24.652Z,34.03
2022-11-28T19:48:52.635Z,36.08
2022-11-28T19:51:21.130Z,67.47
2022-11-28T19:53:48.994Z,36.67
2022-11-28T19:56:18.926Z,60.67
2022-11-28T19:58:48.673Z,57.72
2022-11-28T20:01:21.094Z,57.38
2022-11-28T20:06:19.975Z,67.53
2022-11-28T20:08:48.642Z,34.92
2022-11-28T20:11:18.242Z,53.47
2022-11-28T20:13:46.855Z,55.03
2022-11-28T20:16:19.531Z,39.10
2022-11-28T20:18:47.496Z,37.33
2022-11-28T20:21:18.661Z,46.83
2022-11-28T20:23:49.451Z,58.28
2022-11-28T20:26:18.851Z,63.42
2022-11-28T20:28:49.219Z,42.97
2022-11-28T20:31:20.495Z,58.22
2022-11-28T20:33:48.867Z,72.07
2022-11-28T20:36:20.024Z,41.55
2022-11-28T20:38:48.141Z,44.60
2022-11-28T20:41:18.345Z,43.25
2022-11-28T20:43:46.557Z,42.60
2022-11-28T20:46:16.201Z,56.13
2022-11-28T20:48:44.490Z,53.17
2022-11-28T20:51:14.789Z,61.70
2022-11-28T20:53:45.147Z,40.83
2022-11-28T20:56:15.096Z,43.22
2022-11-28T20:58:43.151Z,44.20
2022-11-28T21:01:16.101Z,45.50
2022-11-28T21:03:44.344Z,45.78
2022-11-28T21:06:13.265Z,61.00
2022-11-28T21:08:41.503Z,62.45
2022-11-28T21:11:30.551Z,50.35
2022-11-28T21:14:10.454Z,52.28
2022-11-28T21:16:38.307Z,55.95
2022-11-28T21:19:09.004Z,54.85
2022-11-28T21:21:38.713Z,53.63
2022-11-28T21:24:09.671Z,45.67
2022-11-28T21:26:42.410Z,53.67
2022-11-28T21:29:13.794Z,51.15
2022-11-28T21:31:45.529Z,46.20
2022-11-28T21:34:15.545Z,54.33
2022-11-28T21:36:43.893Z,50.88
2022-11-28T21:39:15.324Z,47.17
2022-11-28T21:41:44.694Z,43.75
2022-11-28T21:44:12.489Z,57.70
2022-11-28T21:46:40.370Z,46.83
2022-11-28T21:49:08.257Z,61.63
2022-11-28T21:51:36.193Z,69.70
2022-11-28T21:54:04.362Z,53.40
2022-11-28T21:56:32.092Z,58.28
2022-11-28T21:59:01.340Z,65.25
2022-11-28T22:01:29.172Z,50.95
2022-11-28T22:04:02.111Z,69.72
2022-11-28T22:06:31.079Z,58.17
2022-11-28T22:08:59.462Z,74.70
2022-11-28T22:11:28.406Z,44.13
2022-11-28T22:13:56.304Z,58.72
2022-11-28T22:16:27.989Z,49.50
2022-11-28T22:18:58.866Z,50.55
2022-11-28T22:24:15.439Z,66.80
2022-11-28T22:26:43.266Z,50.88
2022-11-28T22:29:11.222Z,51.70
2022-11-28T22:31:40.541Z,65.28
2022-11-28T22:34:09.981Z,69.28
2022-11-28T22:36:38.698Z,53.25
2022-11-28T22:39:06.622Z,49.08
2022-11-28T22:41:34.542Z,55.95
2022-11-28T22:44:04.074Z,56.03
2022-11-28T22:46:32.555Z,62.33
2022-11-28T22:49:02.875Z,58.63
2022-11-28T22:51:31.662Z,56.50
2022-11-28T22:54:01.386Z,60.95
2022-11-28T22:56:30.913Z,57.45
2022-11-28T22:58:58.815Z,55.58
2022-11-28T23:01:28.526Z,75.50
2022-11-28T23:03:56.976Z,81.03
2022-11-28T23:06:28.511Z,70.80
2022-11-28T23:08:57.076Z,71.43
2022-11-28T23:11:26.605Z,68.38
2022-11-28T23:13:54.637Z,89.78
2022-11-28T23:16:24.806Z,91.30
2022-11-28T23:18:55.612Z,78.88
2022-11-28T23:21:25.053Z,79.78
2022-11-28T23:23:55.009Z,68.30
2022-11-28T23:26:25.422Z,82.88
2022-11-28T23:28:53.900Z,84.15
2022-11-28T23:31:23.779Z,79.63
2022-11-28T23:33:52.456Z,77.40
2022-11-28T23:36:23.567Z,116.55
2022-11-28T23:38:53.391Z,113.65
2022-11-28T23:41:22.762Z,86.20
2022-11-28T23:43:50.731Z,96.40
2022-11-28T23:46:20.133Z,77.93
2022-11-28T23:48:51.677Z,101.60
2022-11-28T23:51:21.092Z,81.47
2022-11-28T23:53:49.928Z,119.53
2022-11-28T23:56:20.616Z,146.30
2022-11-28T23:58:50.708Z,79.00
